Time;durP1;ratioP1;P1;durP2;ratioP2;P2;SDS_P1;SDS_P2;PMS_P1;PMS_P2;Temp;Humidity;BMP_temperature;BMP_pressure;BME280_temperature;BME280_humidity;BME280_pressure;Samples;Min_cycle;Max_cycle;Signal;HPM_P1;HPM_P2
2021/10/25 00:02:26;;;;;;;13.80;10.52;;;;;;;;;;5074759;28;20233;-78
2021/10/25 00:04:53;;;;;;;12.82;9.70;;;;;;;;;;5073790;28;20276;-78
2021/10/25 00:07:22;;;;;;;16.63;11.63;;;;;;;;;;5073819;28;20200;-78
2021/10/25 00:09:49;;;;;;;15.23;10.65;;;;;;;;;;5073890;28;20189;-78
2021/10/25 00:12:16;;;;;;;12.38;11.10;;;;;;;;;;5073639;28;20201;-79
2021/10/25 00:14:43;;;;;;;13.18;10.98;;;;;;;;;;5073274;28;20198;-78
2021/10/25 00:17:11;;;;;;;17.92;12.45;;;;;;;;;;5074187;28;20220;-78
2021/10/25 00:19:38;;;;;;;14.40;10.00;;;;;;;;;;5073971;28;20202;-77
2021/10/25 00:22:05;;;;;;;14.90;10.80;;;;;;;;;;5073913;28;20204;-77
2021/10/25 00:24:34;;;;;;;12.20;10.75;;;;;;;;;;5073117;28;20195;-77
2021/10/25 00:27:01;;;;;;;12.40;10.93;;;;;;;;;;5073991;28;20643;-78
2021/10/25 00:29:28;;;;;;;12.68;11.32;;;;;;;;;;5073347;28;20283;-77
2021/10/25 00:31:55;;;;;;;16.52;10.75;;;;;;;;;;5073387;28;20190;-77
2021/10/25 00:34:23;;;;;;;12.57;10.40;;;;;;;;;;5073266;28;20201;-74
2021/10/25 00:36:50;;;;;;;15.80;10.85;;;;;;;;;;5073316;28;20204;-78
2021/10/25 00:39:18;;;;;;;14.90;11.10;;;;;;;;;;5073248;28;20197;-78
2021/10/25 00:41:47;;;;;;;10.95;9.82;;;;;;;;;;5072372;28;20212;-78
2021/10/25 00:44:19;;;;;;;16.65;9.70;;;;;;;;;;5073673;28;20312;-77
2021/10/25 00:46:46;;;;;;;10.85;9.73;;;;;;;;;;5073459;28;20200;-78
2021/10/25 00:49:13;;;;;;;12.98;8.73;;;;;;;;;;5073333;28;20196;-78
2021/10/25 00:51:41;;;;;;;14.90;10.65;;;;;;;;;;5073674;28;20553;-78
2021/10/25 00:54:08;;;;;;;11.45;10.25;;;;;;;;;;5073122;28;20198;-76
2021/10/25 00:56:35;;;;;;;19.65;10.13;;;;;;;;;;5073375;28;20284;-76
2021/10/25 00:59:04;;;;;;;14.32;10.30;;;;;;;;;;5072766;28;20297;-76
2021/10/25 01:01:31;;;;;;;12.95;10.07;;;;;;;;;;5072743;28;20287;-77
2021/10/25 01:03:58;;;;;;;11.55;9.55;;;;;;;;;;5072563;28;20226;-75
2021/10/25 01:06:26;;;;;;;13.20;10.38;;;;;;;;;;5073539;28;20561;-76
2021/10/25 01:08:53;;;;;;;11.50;10.30;;;;;;;;;;5072930;28;20222;-76
2021/10/25 01:11:21;;;;;;;13.85;9.80;;;;;;;;;;5072655;28;20196;-76
2021/10/25 01:13:48;;;;;;;12.10;10.82;;;;;;;;;;5073071;28;20570;-76
2021/10/25 01:16:17;;;;;;;17.88;10.77;;;;;;;;;;5073124;28;20192;-76
2021/10/25 01:18:45;;;;;;;14.90;10.25;;;;;;;;;;5072569;28;20199;-76
2021/10/25 01:21:14;;;;;;;11.82;9.07;;;;;;;;;;5072843;28;20347;-76
2021/10/25 01:23:41;;;;;;;11.40;9.65;;;;;;;;;;5072389;28;20219;-75
2021/10/25 01:26:08;;;;;;;14.45;10.93;;;;;;;;;;5072771;28;20194;-76
2021/10/25 01:28:37;;;;;;;12.45;10.50;;;;;;;;;;5072485;28;20197;-76
2021/10/25 01:31:05;;;;;;;13.07;11.30;;;;;;;;;;5072788;28;20566;-75
2021/10/25 01:33:34;;;;;;;11.15;9.70;;;;;;;;;;5072435;28;20201;-76
2021/10/25 01:36:02;;;;;;;12.30;10.80;;;;;;;;;;5072353;28;20199;-77
2021/10/25 01:38:30;;;;;;;16.35;10.55;;;;;;;;;;5072466;28;20557;-78
2021/10/25 01:40:57;;;;;;;13.23;9.90;;;;;;;;;;5072617;28;20192;-78
2021/10/25 01:43:25;;;;;;;12.05;10.18;;;;;;;;;;5073019;28;20220;-77
2021/10/25 01:45:52;;;;;;;12.45;10.75;;;;;;;;;;5072836;28;20745;-77
2021/10/25 01:48:19;;;;;;;12.35;10.43;;;;;;;;;;5073289;28;20673;-79
2021/10/25 01:50:46;;;;;;;15.70;11.25;;;;;;;;;;5072749;28;20197;-78
2021/10/25 01:53:14;;;;;;;12.02;9.85;;;;;;;;;;5073339;28;20199;-77
2021/10/25 01:55:42;;;;;;;16.58;11.07;;;;;;;;;;5076222;28;20291;-77
2021/10/25 01:58:09;;;;;;;13.23;9.20;;;;;;;;;;5075890;28;20240;-78
2021/10/25 02:00:38;;;;;;;13.60;9.80;;;;;;;;;;5076149;28;20207;-77
2021/10/25 02:03:05;;;;;;;18.10;11.68;;;;;;;;;;5075706;28;20710;-77
2021/10/25 02:05:33;;;;;;;14.70;10.30;;;;;;;;;;5076073;28;20287;-77
2021/10/25 02:08:01;;;;;;;13.50;9.95;;;;;;;;;;5075306;28;20278;-77
2021/10/25 02:10:28;;;;;;;15.85;10.43;;;;;;;;;;5076131;28;20197;-77
2021/10/25 02:12:56;;;;;;;16.40;10.75;;;;;;;;;;5075980;28;20255;-76
2021/10/25 02:15:24;;;;;;;13.75;10.13;;;;;;;;;;5076409;28;20201;-77
2021/10/25 02:17:51;;;;;;;12.30;10.05;;;;;;;;;;5075880;28;20202;-77
2021/10/25 02:20:19;;;;;;;12.45;9.35;;;;;;;;;;5075751;28;20235;-77
2021/10/25 02:22:46;;;;;;;14.00;10.82;;;;;;;;;;5075776;28;20201;-77
2021/10/25 02:25:13;;;;;;;12.80;9.63;;;;;;;;;;5075634;28;20203;-77
2021/10/25 02:27:40;;;;;;;11.98;9.88;;;;;;;;;;5075391;28;20286;-77
2021/10/25 02:30:10;;;;;;;12.10;10.23;;;;;;;;;;5075333;28;20197;-77
2021/10/25 02:32:37;;;;;;;13.55;10.45;;;;;;;;;;5075230;28;20663;-77
2021/10/25 02:35:04;;;;;;;12.95;10.70;;;;;;;;;;5075510;28;20200;-77
2021/10/25 02:37:31;;;;;;;16.27;10.18;;;;;;;;;;5075200;28;20195;-77
2021/10/25 02:39:58;;;;;;;14.05;10.45;;;;;;;;;;5076038;28;20275;-76
2021/10/25 02:42:26;;;;;;;16.23;10.23;;;;;;;;;;5076632;28;20205;-77
2021/10/25 02:44:54;;;;;;;13.48;9.70;;;;;;;;;;5075439;28;20768;-76
2021/10/25 02:47:22;;;;;;;13.20;10.95;;;;;;;;;;5075351;28;20234;-76
2021/10/25 02:49:49;;;;;;;15.23;11.35;;;;;;;;;;5075229;28;20204;-79
2021/10/25 02:52:18;;;;;;;10.35;9.30;;;;;;;;;;5075190;28;20309;-78
2021/10/25 02:54:45;;;;;;;13.48;10.30;;;;;;;;;;5075138;28;20210;-76
2021/10/25 02:57:14;;;;;;;10.82;9.68;;;;;;;;;;5075058;28;20200;-78
2021/10/25 02:59:41;;;;;;;14.90;9.57;;;;;;;;;;5074738;28;20215;-76
2021/10/25 03:02:08;;;;;;;12.65;10.18;;;;;;;;;;5075382;28;20661;-78
2021/10/25 03:04:37;;;;;;;13.82;11.13;;;;;;;;;;5075995;28;20307;-77
2021/10/25 03:07:04;;;;;;;13.60;10.30;;;;;;;;;;5075440;28;20197;-77
2021/10/25 03:09:31;;;;;;;12.90;10.65;;;;;;;;;;5075257;28;20234;-77
2021/10/25 03:12:00;;;;;;;14.98;10.52;;;;;;;;;;5074519;28;20196;-77
2021/10/25 03:14:27;;;;;;;13.48;10.00;;;;;;;;;;5075041;28;20204;-77
2021/10/25 03:16:54;;;;;;;17.35;11.70;;;;;;;;;;5074489;28;20690;-77
2021/10/25 03:19:23;;;;;;;19.65;11.00;;;;;;;;;;5074843;28;20202;-78
2021/10/25 03:21:52;;;;;;;14.15;10.52;;;;;;;;;;5074619;28;20241;-77
2021/10/25 03:24:19;;;;;;;16.67;10.32;;;;;;;;;;5074523;28;20248;-77
2021/10/25 03:26:47;;;;;;;15.60;11.38;;;;;;;;;;5074250;28;20195;-77
2021/10/25 03:29:14;;;;;;;19.13;11.05;;;;;;;;;;5074931;28;20195;-77
2021/10/25 03:31:41;;;;;;;12.90;10.45;;;;;;;;;;5074459;28;20285;-77
2021/10/25 03:34:08;;;;;;;14.30;10.35;;;;;;;;;;5074184;28;20209;-78
2021/10/25 03:36:36;;;;;;;20.05;11.27;;;;;;;;;;5088860;28;20196;-80
2021/10/25 03:39:07;;;;;;;14.52;11.82;;;;;;;;;;5090876;28;20287;-80
2021/10/25 03:41:36;;;;;;;21.38;11.27;;;;;;;;;;5087461;28;20193;-82
2021/10/25 03:44:08;;;;;;;12.85;10.50;;;;;;;;;;5076843;28;20221;-81
2021/10/25 03:46:40;;;;;;;14.90;11.43;;;;;;;;;;5074855;28;20612;-79
2021/10/25 03:49:13;;;;;;;21.65;12.65;;;;;;;;;;5081942;28;20705;-79
2021/10/25 03:51:42;;;;;;;15.13;12.30;;;;;;;;;;5085861;28;20224;-79
2021/10/25 03:54:29;;;;;;;15.77;12.00;;;;;;;;;;5077688;28;20630;-79
2021/10/25 04:25:13;;;;;;;15.35;11.20;;;;;;;;;;5073742;28;20196;-77
2021/10/25 04:27:47;;;;;;;15.27;10.88;;;;;;;;;;5074255;28;20226;-80
2021/10/25 04:30:15;;;;;;;14.60;11.65;;;;;;;;;;5082870;28;20195;-80
2021/10/25 04:32:42;;;;;;;19.67;11.10;;;;;;;;;;5093624;28;20217;-79
2021/10/25 04:35:10;;;;;;;13.70;11.52;;;;;;;;;;5093738;28;20198;-77
2021/10/25 04:37:37;;;;;;;12.93;11.52;;;;;;;;;;5093274;28;20201;-79
2021/10/25 04:40:05;;;;;;;18.13;11.38;;;;;;;;;;5093186;28;20294;-79
2021/10/25 04:42:32;;;;;;;16.05;13.05;;;;;;;;;;5093646;28;20537;-79
2021/10/25 04:45:01;;;;;;;19.38;12.55;;;;;;;;;;5093140;28;20224;-79
2021/10/25 04:47:28;;;;;;;21.23;11.27;;;;;;;;;;5093283;28;20563;-77
2021/10/25 04:49:55;;;;;;;15.05;11.02;;;;;;;;;;5093386;28;20286;-79
2021/10/25 04:52:23;;;;;;;16.50;12.02;;;;;;;;;;5093237;28;20210;-80
2021/10/25 04:54:50;;;;;;;13.70;11.27;;;;;;;;;;5094160;28;20198;-81
2021/10/25 04:57:17;;;;;;;14.95;11.43;;;;;;;;;;5093543;28;20372;-80
2021/10/25 04:59:45;;;;;;;15.68;11.43;;;;;;;;;;5093337;28;20185;-80
2021/10/25 05:02:14;;;;;;;15.20;11.70;;;;;;;;;;5093426;28;20199;-81
2021/10/25 05:04:41;;;;;;;13.82;11.35;;;;;;;;;;5093828;28;20253;-80
2021/10/25 05:07:08;;;;;;;17.27;11.02;;;;;;;;;;5094050;28;20228;-80
2021/10/25 05:09:35;;;;;;;19.85;12.52;;;;;;;;;;5094139;28;20660;-80
2021/10/25 05:12:04;;;;;;;15.30;11.60;;;;;;;;;;5093502;28;20190;-79
2021/10/25 05:14:31;;;;;;;13.13;11.13;;;;;;;;;;5093170;28;20201;-80
2021/10/25 05:16:59;;;;;;;14.55;11.30;;;;;;;;;;5093704;28;20195;-79
2021/10/25 05:19:27;;;;;;;14.27;11.63;;;;;;;;;;5094356;28;20194;-80
2021/10/25 05:21:54;;;;;;;19.25;12.73;;;;;;;;;;5094039;28;20202;-81
2021/10/25 05:24:21;;;;;;;16.58;12.30;;;;;;;;;;5093627;28;20221;-81
2021/10/25 05:26:49;;;;;;;15.98;12.45;;;;;;;;;;5092125;28;20229;-82
2021/10/25 05:29:16;;;;;;;18.23;12.75;;;;;;;;;;5095772;28;20204;-69
2021/10/25 05:31:45;;;;;;;19.25;12.38;;;;;;;;;;5097154;28;20290;-75
2021/10/25 05:34:12;;;;;;;18.23;13.40;;;;;;;;;;5097101;28;20301;-75
2021/10/25 05:36:41;;;;;;;20.27;12.30;;;;;;;;;;5097276;28;20199;-74
2021/10/25 05:39:10;;;;;;;20.73;13.43;;;;;;;;;;5096875;28;20198;-74
2021/10/25 05:41:38;;;;;;;18.95;12.63;;;;;;;;;;5097171;28;20243;-75
2021/10/25 05:44:06;;;;;;;24.20;13.60;;;;;;;;;;5096701;28;20690;-75
2021/10/25 05:46:33;;;;;;;13.82;11.35;;;;;;;;;;5097484;28;20194;-75
2021/10/25 05:49:00;;;;;;;18.80;13.43;;;;;;;;;;5097263;28;20232;-75
2021/10/25 05:51:28;;;;;;;22.52;12.15;;;;;;;;;;5096929;28;20204;-76
2021/10/25 05:53:57;;;;;;;16.35;12.13;;;;;;;;;;5096977;28;20197;-74
2021/10/25 05:56:27;;;;;;;20.95;12.57;;;;;;;;;;5096386;28;20228;-75
2021/10/25 05:58:54;;;;;;;16.20;13.57;;;;;;;;;;5097225;28;20608;-75
2021/10/25 06:01:26;;;;;;;24.02;14.85;;;;;;;;;;5096737;28;20199;-74
2021/10/25 06:03:59;;;;;;;28.58;15.65;;;;;;;;;;5097090;28;20274;-75
2021/10/25 06:06:26;;;;;;;22.83;16.52;;;;;;;;;;5096471;28;20187;-75
2021/10/25 06:08:53;;;;;;;14.93;12.60;;;;;;;;;;5097345;28;20554;-75
2021/10/25 06:11:22;;;;;;;18.15;12.30;;;;;;;;;;5096398;28;20233;-75
2021/10/25 06:13:50;;;;;;;15.00;12.23;;;;;;;;;;5096381;28;20540;-75
2021/10/25 06:16:19;;;;;;;21.23;13.32;;;;;;;;;;5096474;28;20278;-75
2021/10/25 06:18:46;;;;;;;21.70;13.32;;;;;;;;;;5096338;28;20256;-75
2021/10/25 06:21:13;;;;;;;15.95;12.07;;;;;;;;;;5095948;28;20203;-75
2021/10/25 06:23:41;;;;;;;16.45;12.50;;;;;;;;;;5096183;28;20194;-74
2021/10/25 06:26:08;;;;;;;16.77;11.93;;;;;;;;;;5095882;28;20688;-74
2021/10/25 06:28:37;;;;;;;19.08;12.82;;;;;;;;;;5096106;28;20554;-76
2021/10/25 06:31:09;;;;;;;15.80;12.35;;;;;;;;;;5096323;28;20226;-76
2021/10/25 06:33:42;;;;;;;16.38;12.43;;;;;;;;;;5096441;28;20193;-75
2021/10/25 06:36:12;;;;;;;20.98;13.18;;;;;;;;;;5096128;28;20217;-75
2021/10/25 06:38:43;;;;;;;19.08;12.20;;;;;;;;;;5096374;28;20582;-75
2021/10/25 06:41:11;;;;;;;19.00;14.15;;;;;;;;;;5096280;28;20186;-75
2021/10/25 06:43:41;;;;;;;28.40;21.63;;;;;;;;;;5095689;28;20698;-74
2021/10/25 06:46:10;;;;;;;21.02;16.95;;;;;;;;;;5096035;28;20236;-76
2021/10/25 06:48:38;;;;;;;21.75;15.20;;;;;;;;;;5095831;28;20198;-75
2021/10/25 06:51:05;;;;;;;16.05;14.40;;;;;;;;;;5095765;28;20617;-75
2021/10/25 06:53:32;;;;;;;15.95;12.43;;;;;;;;;;5095462;28;20289;-75
2021/10/25 06:55:59;;;;;;;19.60;12.25;;;;;;;;;;5095648;28;20197;-75
2021/10/25 06:58:26;;;;;;;21.55;12.57;;;;;;;;;;5095442;28;20207;-76
2021/10/25 07:00:58;;;;;;;15.25;12.20;;;;;;;;;;5095518;28;20559;-74
2021/10/25 07:03:25;;;;;;;16.80;12.23;;;;;;;;;;5095738;28;20188;-74
2021/10/25 07:05:52;;;;;;;20.00;13.77;;;;;;;;;;5095682;28;20218;-74
2021/10/25 07:08:19;;;;;;;18.88;11.80;;;;;;;;;;5095271;28;20317;-75
2021/10/25 07:10:47;;;;;;;23.77;12.60;;;;;;;;;;5095291;28;20569;-75
2021/10/25 07:13:14;;;;;;;17.05;10.63;;;;;;;;;;5095116;28;20204;-74
2021/10/25 07:15:46;;;;;;;15.60;12.30;;;;;;;;;;5095286;28;20197;-75
2021/10/25 07:18:19;;;;;;;15.60;10.90;;;;;;;;;;5094959;28;20656;-75
2021/10/25 07:21:01;;;;;;;14.32;11.50;;;;;;;;;;5095660;28;20276;-75
2021/10/25 07:26:45;;;;;;;22.48;13.98;;;;;;;;;;5095011;28;20227;-76
2021/10/25 08:07:54;;;;;;;16.38;11.93;;;;;;;;;;5094096;28;20307;-74
2021/10/25 08:10:24;;;;;;;22.75;13.07;;;;;;;;;;5094316;28;20198;-74
2021/10/25 08:12:55;;;;;;;18.38;12.43;;;;;;;;;;5095124;28;20184;-75
2021/10/25 08:15:26;;;;;;;15.00;11.10;;;;;;;;;;5094845;28;20600;-75
2021/10/25 08:17:57;;;;;;;16.17;12.63;;;;;;;;;;5093900;28;20225;-75
2021/10/25 08:20:24;;;;;;;14.30;12.80;;;;;;;;;;5094972;28;20245;-75
2021/10/25 08:22:53;;;;;;;15.73;14.13;;;;;;;;;;5093670;28;20198;-75
2021/10/25 08:25:22;;;;;;;17.23;12.50;;;;;;;;;;5093853;28;20645;-75
2021/10/25 08:27:49;;;;;;;20.13;12.40;;;;;;;;;;5093924;28;20633;-75
2021/10/25 08:30:19;;;;;;;13.80;11.10;;;;;;;;;;5093417;28;20192;-74
2021/10/25 08:33:01;;;;;;;11.25;9.90;;;;;;;;;;5093661;28;20201;-74
2021/10/25 08:40:56;;;;;;;10.00;8.95;;;;;;;;;;5093549;28;20601;-74
2021/10/25 08:43:23;;;;;;;10.95;8.70;;;;;;;;;;5093925;28;20287;-74
2021/10/25 08:45:51;;;;;;;11.50;8.27;;;;;;;;;;5093609;28;20226;-74
2021/10/25 08:48:20;;;;;;;9.00;8.10;;;;;;;;;;5094183;28;20551;-74
2021/10/25 08:50:47;;;;;;;10.68;7.90;;;;;;;;;;5093889;28;20577;-74
2021/10/25 08:53:17;;;;;;;10.13;8.52;;;;;;;;;;5096356;28;20200;-74
2021/10/25 08:55:46;;;;;;;13.48;8.57;;;;;;;;;;5105121;28;20220;-75
2021/10/25 08:58:14;;;;;;;8.57;7.40;;;;;;;;;;5102322;28;20201;-75
2021/10/25 09:00:45;;;;;;;8.60;7.38;;;;;;;;;;5100241;28;20525;-74
2021/10/25 09:03:12;;;;;;;8.27;7.07;;;;;;;;;;5095840;28;20268;-76
2021/10/25 09:05:40;;;;;;;11.63;7.70;;;;;;;;;;5098788;28;20482;-74
2021/10/25 09:08:09;;;;;;;10.43;7.93;;;;;;;;;;5101433;28;20316;-75
2021/10/25 09:10:39;;;;;;;11.38;7.30;;;;;;;;;;5101714;28;20193;-74
2021/10/25 09:13:07;;;;;;;8.55;7.25;;;;;;;;;;5098511;28;20197;-74
2021/10/25 09:15:37;;;;;;;12.57;6.70;;;;;;;;;;5098199;28;20201;-76
2021/10/25 09:18:07;;;;;;;10.47;7.47;;;;;;;;;;5098409;28;20447;-75
2021/10/25 09:20:43;;;;;;;16.70;7.40;;;;;;;;;;5097798;28;20435;-75
2021/10/25 09:23:11;;;;;;;8.93;7.27;;;;;;;;;;5097728;28;20435;-75
2021/10/25 09:25:41;;;;;;;8.57;7.03;;;;;;;;;;5097463;28;20912;-74
2021/10/25 09:28:16;;;;;;;7.80;7.03;;;;;;;;;;5098457;28;20784;-75
2021/10/25 09:30:47;;;;;;;8.27;6.63;;;;;;;;;;5097465;28;20264;-74
2021/10/25 09:33:20;;;;;;;12.20;6.97;;;;;;;;;;5098015;28;20452;-76
2021/10/25 09:35:52;;;;;;;13.20;6.87;;;;;;;;;;5097671;28;20514;-75
2021/10/25 09:38:25;;;;;;;11.03;6.43;;;;;;;;;;5097991;28;20862;-75
2021/10/25 09:49:14;;;;;;;8.13;6.30;;;;;;;;;;5096819;28;20402;-75
2021/10/25 09:51:51;;;;;;;9.13;6.33;;;;;;;;;;5097660;28;20454;-75
2021/10/25 09:54:22;;;;;;;8.17;6.30;;;;;;;;;;5097482;28;20753;-75
2021/10/25 09:57:03;;;;;;;10.33;5.60;;;;;;;;;;5096617;28;20929;-75
2021/10/25 09:59:33;;;;;;;10.00;6.10;;;;;;;;;;5097073;28;20832;-75
2021/10/25 10:02:01;;;;;;;8.17;6.20;;;;;;;;;;5097055;28;20430;-75
2021/10/25 10:04:29;;;;;;;7.03;5.97;;;;;;;;;;5097055;28;20439;-75
2021/10/25 10:06:57;;;;;;;6.93;6.23;;;;;;;;;;5096439;28;20570;-75
2021/10/25 10:09:25;;;;;;;8.50;5.20;;;;;;;;;;5096930;28;20574;-75
2021/10/25 10:11:53;;;;;;;8.87;5.90;;;;;;;;;;5096991;28;20526;-75
2021/10/25 10:14:21;;;;;;;7.27;5.60;;;;;;;;;;5096392;28;20807;-75
2021/10/25 10:16:48;;;;;;;6.17;5.40;;;;;;;;;;5096192;28;20475;-75
2021/10/25 10:19:23;;;;;;;6.53;6.00;;;;;;;;;;5096092;28;20476;-75
2021/10/25 10:21:51;;;;;;;5.53;4.90;;;;;;;;;;5096029;28;20439;-76
2021/10/25 10:24:20;;;;;;;5.70;4.57;;;;;;;;;;5095982;28;20445;-76
2021/10/25 10:26:55;;;;;;;6.40;5.70;;;;;;;;;;5096603;28;20540;-75
2021/10/25 10:29:22;;;;;;;10.87;6.10;;;;;;;;;;5097024;28;20501;-74
2021/10/25 10:31:58;;;;;;;7.80;5.17;;;;;;;;;;5096012;28;20926;-75
2021/10/25 10:34:26;;;;;;;6.80;4.87;;;;;;;;;;5095833;28;20459;-75
2021/10/25 10:36:57;;;;;;;8.03;5.57;;;;;;;;;;5095921;28;20450;-76
2021/10/25 10:39:27;;;;;;;7.03;5.10;;;;;;;;;;5096280;28;20428;-75
2021/10/25 10:41:57;;;;;;;6.40;4.47;;;;;;;;;;5095658;28;20445;-75
2021/10/25 10:44:26;;;;;;;6.67;5.03;;;;;;;;;;5096166;28;20485;-75
2021/10/25 10:46:58;;;;;;;5.97;5.37;;;;;;;;;;5096194;28;20567;-76
2021/10/25 10:49:28;;;;;;;4.83;4.43;;;;;;;;;;5095908;28;20425;-76
2021/10/25 10:52:13;;;;;;;7.07;5.60;;;;;;;;;;5096164;28;20429;-75
2021/10/25 10:54:45;;;;;;;5.90;4.67;;;;;;;;;;5095622;28;20432;-76
2021/10/25 10:57:27;;;;;;;8.47;5.20;;;;;;;;;;5095399;28;20916;-75
2021/10/25 10:59:58;;;;;;;10.53;4.27;;;;;;;;;;5096449;28;20801;-75
2021/10/25 11:02:25;;;;;;;5.13;4.63;;;;;;;;;;5096315;28;20425;-75
2021/10/25 11:04:52;;;;;;;5.53;5.00;;;;;;;;;;5095196;28;20536;-75
2021/10/25 11:07:20;;;;;;;7.37;5.80;;;;;;;;;;5094778;28;20491;-75
2021/10/25 11:10:00;;;;;;;11.07;5.67;;;;;;;;;;5095115;28;20968;-75
2021/10/25 11:12:29;;;;;;;6.03;5.47;;;;;;;;;;5095160;28;20425;-75
2021/10/25 11:15:02;;;;;;;7.10;5.80;;;;;;;;;;5095011;28;20482;-75
2021/10/25 11:17:31;;;;;;;7.30;4.87;;;;;;;;;;5094752;28;20433;-74
2021/10/25 11:19:58;;;;;;;5.80;4.90;;;;;;;;;;5094985;28;20471;-75
2021/10/25 11:22:30;;;;;;;5.23;4.77;;;;;;;;;;5094968;28;20444;-75
2021/10/25 11:24:58;;;;;;;6.83;5.23;;;;;;;;;;5094620;28;20434;-75
2021/10/25 11:27:31;;;;;;;5.47;4.93;;;;;;;;;;5093621;28;20495;-75
2021/10/25 11:30:19;;;;;;;5.40;4.30;;;;;;;;;;5094703;28;20434;-75
2021/10/25 11:32:48;;;;;;;7.27;5.30;;;;;;;;;;5088357;28;20484;-75
2021/10/25 11:35:16;;;;;;;5.43;4.87;;;;;;;;;;5094674;28;20445;-75
2021/10/25 11:37:49;;;;;;;5.57;5.07;;;;;;;;;;5094514;28;20481;-75
2021/10/25 11:40:22;;;;;;;5.87;4.23;;;;;;;;;;5094963;28;20463;-76
2021/10/25 11:42:49;;;;;;;9.40;6.13;;;;;;;;;;5094520;28;20433;-75
2021/10/25 11:45:18;;;;;;;9.50;5.83;;;;;;;;;;5094150;28;20433;-75
2021/10/25 11:47:46;;;;;;;6.77;4.77;;;;;;;;;;5094336;28;20798;-76
2021/10/25 11:50:16;;;;;;;11.40;5.80;;;;;;;;;;5094002;28;20451;-70
2021/10/25 11:52:45;;;;;;;5.57;4.60;;;;;;;;;;5094962;28;20541;-80
2021/10/25 11:55:14;;;;;;;9.50;3.83;;;;;;;;;;5100290;28;20439;-82
2021/10/25 11:57:46;;;;;;;6.77;4.57;;;;;;;;;;5095468;28;20524;-82
2021/10/25 12:00:14;;;;;;;6.80;5.43;;;;;;;;;;5094424;28;20400;-82
2021/10/25 12:02:48;;;;;;;5.87;5.20;;;;;;;;;;5093857;28;20529;-76
2021/10/25 12:05:23;;;;;;;5.13;4.30;;;;;;;;;;5093888;28;20517;-82
2021/10/25 12:07:51;;;;;;;9.27;4.40;;;;;;;;;;5093031;28;21061;-82
2021/10/25 12:10:18;;;;;;;8.73;4.53;;;;;;;;;;5093522;28;20427;-82
2021/10/25 12:12:46;;;;;;;8.47;4.07;;;;;;;;;;5093446;28;20460;-82
2021/10/25 12:15:14;;;;;;;5.73;5.13;;;;;;;;;;5093805;28;20518;-82
2021/10/25 12:17:42;;;;;;;5.13;4.47;;;;;;;;;;5098238;28;20471;-82
2021/10/25 12:20:11;;;;;;;10.43;4.57;;;;;;;;;;5095346;28;20517;-83
2021/10/25 12:22:42;;;;;;;5.40;4.07;;;;;;;;;;5093858;28;20443;-81
2021/10/25 12:25:10;;;;;;;9.90;6.90;;;;;;;;;;5094231;28;20442;-82
2021/10/25 12:27:40;;;;;;;6.33;3.90;;;;;;;;;;5094672;28;20653;-81
2021/10/25 12:30:08;;;;;;;10.30;4.40;;;;;;;;;;5094354;28;20443;-82
2021/10/25 12:32:39;;;;;;;9.20;3.80;;;;;;;;;;5094090;28;20525;-83
2021/10/25 12:35:07;;;;;;;5.13;3.57;;;;;;;;;;5095634;28;20908;-82
2021/10/25 12:37:36;;;;;;;7.53;3.90;;;;;;;;;;5093901;28;20531;-81
2021/10/25 12:40:20;;;;;;;4.53;4.03;;;;;;;;;;5096618;28;20523;-82
2021/10/25 12:42:48;;;;;;;5.90;4.30;;;;;;;;;;5093947;28;20943;-84
2021/10/25 12:45:17;;;;;;;8.77;4.57;;;;;;;;;;5093412;28;20453;-83
2021/10/25 12:47:53;;;;;;;15.47;5.37;;;;;;;;;;5094050;28;20468;-82
2021/10/25 12:50:21;;;;;;;10.87;3.83;;;;;;;;;;5094008;28;20449;-81
2021/10/25 12:52:54;;;;;;;6.07;3.70;;;;;;;;;;5094224;28;20525;-81
2021/10/25 12:55:23;;;;;;;7.70;4.73;;;;;;;;;;5094324;28;20836;-80
2021/10/25 12:57:55;;;;;;;7.23;4.50;;;;;;;;;;5093345;28;20449;-76
2021/10/25 13:00:22;;;;;;;4.00;3.70;;;;;;;;;;5093455;28;20441;-77
2021/10/25 13:02:52;;;;;;;6.80;3.60;;;;;;;;;;5093794;28;20446;-76
2021/10/25 13:05:20;;;;;;;5.90;4.70;;;;;;;;;;5094050;28;20455;-76
2021/10/25 13:07:48;;;;;;;5.57;3.70;;;;;;;;;;5092916;28;20496;-76
2021/10/25 13:10:16;;;;;;;5.27;3.27;;;;;;;;;;5093718;28;20425;-78
2021/10/25 13:12:45;;;;;;;8.30;4.20;;;;;;;;;;5093819;28;20496;-77
2021/10/25 13:15:12;;;;;;;5.57;4.13;;;;;;;;;;5093043;28;20951;-77
2021/10/25 13:17:41;;;;;;;7.23;3.87;;;;;;;;;;5093975;28;20529;-77
2021/10/25 13:20:09;;;;;;;4.60;3.47;;;;;;;;;;5092958;28;20484;-78
2021/10/25 13:22:36;;;;;;;5.40;3.70;;;;;;;;;;5093009;28;20442;-79
2021/10/25 13:25:04;;;;;;;10.00;3.70;;;;;;;;;;5093413;28;20827;-78
2021/10/25 13:27:31;;;;;;;5.40;3.47;;;;;;;;;;5092840;28;20492;-77
2021/10/25 13:30:00;;;;;;;8.20;4.03;;;;;;;;;;5093189;28;20437;-77
2021/10/25 13:32:28;;;;;;;10.40;6.07;;;;;;;;;;5093714;28;20456;-78
2021/10/25 13:34:55;;;;;;;6.70;4.80;;;;;;;;;;5093209;28;20524;-77
2021/10/25 13:37:22;;;;;;;9.90;4.10;;;;;;;;;;5092836;28;20455;-77
2021/10/25 13:39:49;;;;;;;6.40;3.93;;;;;;;;;;5093115;28;20927;-77
2021/10/25 13:42:17;;;;;;;10.33;3.90;;;;;;;;;;5092766;28;20946;-77
2021/10/25 13:44:44;;;;;;;4.50;3.80;;;;;;;;;;5093093;28;20445;-77
2021/10/25 13:47:14;;;;;;;3.40;3.10;;;;;;;;;;5093158;28;20575;-77
2021/10/25 13:49:41;;;;;;;6.00;4.47;;;;;;;;;;5094651;28;20507;-78
2021/10/25 13:52:08;;;;;;;4.57;3.37;;;;;;;;;;5097030;28;20454;-78
2021/10/25 13:54:37;;;;;;;6.57;4.27;;;;;;;;;;5097004;28;20474;-77
2021/10/25 13:57:07;;;;;;;6.90;4.30;;;;;;;;;;5096767;28;20524;-78
2021/10/25 13:59:35;;;;;;;7.27;4.00;;;;;;;;;;5096625;28;20447;-76
2021/10/25 14:02:02;;;;;;;5.33;3.83;;;;;;;;;;5096301;28;20484;-76
2021/10/25 14:04:31;;;;;;;4.97;3.40;;;;;;;;;;5096313;28;20502;-76
2021/10/25 14:06:59;;;;;;;4.17;3.77;;;;;;;;;;5096092;28;20474;-76
2021/10/25 14:09:26;;;;;;;7.20;3.83;;;;;;;;;;5096817;28;20502;-76
2021/10/25 14:11:57;;;;;;;8.10;4.00;;;;;;;;;;5096059;28;20453;-76
2021/10/25 14:14:27;;;;;;;6.00;3.73;;;;;;;;;;5097019;28;20524;-75
2021/10/25 14:16:54;;;;;;;4.97;4.40;;;;;;;;;;5096254;28;20945;-76
2021/10/25 14:19:22;;;;;;;5.23;4.17;;;;;;;;;;5096817;28;20449;-76
2021/10/25 14:21:51;;;;;;;7.60;4.30;;;;;;;;;;5096083;28;20916;-76
2021/10/25 14:24:19;;;;;;;4.70;4.30;;;;;;;;;;5096332;28;20863;-77
2021/10/25 14:26:48;;;;;;;6.03;4.23;;;;;;;;;;5096615;28;20979;-76
2021/10/25 14:29:16;;;;;;;5.60;4.40;;;;;;;;;;5096947;28;20441;-76
2021/10/25 14:31:47;;;;;;;8.27;4.70;;;;;;;;;;5096303;28;20441;-76
2021/10/25 14:34:14;;;;;;;5.63;4.33;;;;;;;;;;5096651;28;20466;-76
2021/10/25 14:36:42;;;;;;;6.50;3.30;;;;;;;;;;5096267;28;20488;-76
2021/10/25 14:39:16;;;;;;;4.33;3.57;;;;;;;;;;5096628;28;20565;-76
2021/10/25 14:41:51;;;;;;;5.20;3.70;;;;;;;;;;5096616;28;20433;-76
2021/10/25 14:44:36;;;;;;;6.63;3.90;;;;;;;;;;5097476;28;20561;-76
2021/10/25 14:47:27;;;;;;;5.90;3.63;;;;;;;;;;5096362;28;20463;-76
2021/10/25 14:55:31;;;;;;;4.43;3.57;;;;;;;;;;5092168;28;20474;-78
2021/10/25 14:57:59;;;;;;;4.90;4.27;;;;;;;;;;5095184;28;20434;-77
2021/10/25 15:00:26;;;;;;;6.73;4.20;;;;;;;;;;5094717;28;20454;-76
2021/10/25 15:02:54;;;;;;;6.93;4.13;;;;;;;;;;5094923;28;20986;-78
2021/10/25 15:05:21;;;;;;;7.10;4.00;;;;;;;;;;5094941;28;20442;-77
2021/10/25 15:07:48;;;;;;;4.57;4.17;;;;;;;;;;5093672;28;20744;-77
2021/10/25 15:10:16;;;;;;;4.20;3.90;;;;;;;;;;5093785;28;20522;-79
2021/10/25 15:12:44;;;;;;;4.70;4.30;;;;;;;;;;5095477;28;20443;-78
2021/10/25 15:15:12;;;;;;;4.60;4.20;;;;;;;;;;5095291;28;20477;-77
2021/10/25 15:17:40;;;;;;;5.03;4.13;;;;;;;;;;5094673;28;20930;-77
2021/10/25 15:20:09;;;;;;;7.10;4.40;;;;;;;;;;5094538;28;20442;-78
2021/10/25 15:22:36;;;;;;;7.17;4.70;;;;;;;;;;5094547;28;20798;-78
2021/10/25 15:25:05;;;;;;;5.03;4.10;;;;;;;;;;5092028;28;20448;-78
2021/10/25 15:27:33;;;;;;;5.77;4.90;;;;;;;;;;5094147;28;20476;-79
2021/10/25 15:30:01;;;;;;;7.40;4.60;;;;;;;;;;5094910;28;20490;-77
2021/10/25 15:32:30;;;;;;;5.27;4.10;;;;;;;;;;5094730;28;20535;-77
2021/10/25 15:34:58;;;;;;;9.77;4.03;;;;;;;;;;5094555;28;20434;-77
2021/10/25 15:37:26;;;;;;;5.13;4.43;;;;;;;;;;5094128;28;20535;-77
2021/10/25 15:39:54;;;;;;;5.33;3.93;;;;;;;;;;5094849;28;20439;-76
2021/10/25 15:42:22;;;;;;;8.67;4.73;;;;;;;;;;5094666;28;20438;-77
2021/10/25 15:44:50;;;;;;;4.53;3.93;;;;;;;;;;5094316;28;20434;-75
2021/10/25 15:47:20;;;;;;;5.37;3.73;;;;;;;;;;5093677;28;20509;-76
2021/10/25 15:49:48;;;;;;;4.57;3.90;;;;;;;;;;5094475;28;20823;-76
2021/10/25 15:52:16;;;;;;;10.60;4.20;;;;;;;;;;5094169;28;20534;-78
2021/10/25 15:54:44;;;;;;;4.40;3.93;;;;;;;;;;5093889;28;20528;-76
2021/10/25 15:57:12;;;;;;;5.90;4.20;;;;;;;;;;5091833;28;20941;-76
2021/10/25 15:59:40;;;;;;;7.97;4.67;;;;;;;;;;5094158;28;20452;-76
2021/10/25 16:02:08;;;;;;;5.40;4.90;;;;;;;;;;5094366;28;20430;-76
2021/10/25 16:04:37;;;;;;;6.20;4.97;;;;;;;;;;5094607;28;20472;-76
2021/10/25 16:07:05;;;;;;;12.83;9.47;;;;;;;;;;5093590;28;20563;-74
2021/10/25 16:09:32;;;;;;;6.27;5.67;;;;;;;;;;5094989;28;20477;-76